This is the latest recevied weather packets stored in our database for station/object DG5MG. If no packets are shown the sender has not sent any weather packets the latest 10 day(s).
| Time | Temp. | Humidity | Pressure | Rain* | Wind** | Luminosity | Snow |
|---|---|---|---|---|---|---|---|
| 1777610406 | 2.78° C | 66% | 1030.1 hPa | 0 mm | - | 0 W/m² | - |
| 1777608906 | 0.56° C | 82% | 1029.8 hPa | 0 mm | - | 0 W/m² | - |
| 1777606506 | 1.11° C | 74% | 1029.9 hPa | 0 mm | - | 0 W/m² | - |
| 1777605006 | 0° C | 86% | 1029.8 hPa | 0 mm | - | 0 W/m² | - |
| 1777604105 | 0° C | 86% | 1030.1 hPa | 0 mm | - | 0 W/m² | - |
| 1777602905 | 0.56° C | 87% | 1029.8 hPa | 0 mm | - | 0 W/m² | - |
| 1777600806 | 0.56° C | 81% | 1030.1 hPa | 0 mm | - | 0 W/m² | - |
| 1777599606 | 1.67° C | 77% | 1030.1 hPa | 0 mm | - | 0 W/m² | - |
| 1777599305 | 1.67° C | 75% | 1030.1 hPa | 0 mm | - | 0 W/m² | - |
| 1777598405 | 1.67° C | 82% | 1030.1 hPa | 0 mm | - | 0 W/m² | - |
| 1777596005 | 3.33° C | 64% | 1030.5 hPa | 0 mm | - | 0 W/m² | - |
| 1777594506 | 3.33° C | 65% | 1030.1 hPa | 0 mm | - | 0 W/m² | - |
| 1777590605 | 5° C | 53% | 1030.1 hPa | 0 mm | - | 0 W/m² | - |
| 1777588805 | 5.56° C | 51% | 1030.1 hPa | 0 mm | - | 0 W/m² | - |
| 1777586705 | 6.67° C | 49% | 1030.3 hPa | 0 mm | - | 0 W/m² | - |
| 1777586405 | 6.67° C | 49% | 1030.1 hPa | 0 mm | - | 0 W/m² | - |
| 1777583705 | 7.22° C | 46% | 1030.5 hPa | 0 mm | - | 0 W/m² | - |
| 1777583105 | 7.22° C | 46% | 1030.5 hPa | 0 mm | - | 0 W/m² | - |
| 1777579805 | 8.33° C | 42% | 1030.5 hPa | 0 mm | - | 0 W/m² | - |
| 1777575905 | 10° C | 39% | 1030.1 hPa | 0 mm | - | 0 W/m² | - |
| 1777575305 | 10° C | 39% | 1029.8 hPa | 0 mm | - | 0 W/m² | - |
| 1777575005 | 10° C | 38% | 1029.8 hPa | 0 mm | - | 0 W/m² | - |
| 1777574405 | 10.56° C | 37% | 1029.8 hPa | 0 mm | - | 0 W/m² | - |
| 1777572906 | 11.11° C | 36% | 1029.5 hPa | 0 mm | - | 0 W/m² | - |
| 1777572306 | 11.67° C | 34% | 1029.3 hPa | 0 mm | - | 0 W/m² | - |
* Rain latest hour (hover to see other rain measurements)
** Current wind speed in m/s (hover to see current wind gust speed)